KCMH

Port Columbus International

Airport
ICAO code
KCMH
Summary
ICAO Region
NAM
ICAO Territory
Location

Columbus, Ohio,

Coordinates
39° 59' 54" N , 82° 53' 33" W
KCC
Cfa
Airport LOS
Parallel Runway Operation
Metar
Observation
KCMH 152151Z 35012KT 10SM BKN046 26/16 A2993 RMK AO2 SLP129 T02560161
Station
Columbus, Port Columbus International Airport
Date/Time
2022-08-15 21:51:00
Wind direction
350°
Wind speed
12 kts
Lowest cloud amount
broken clouds
Temperature
25.6°C
Dew point
16.1°C
Humidity
55%
Weather condition
n/a

Description

Port Columbus International Airport, commonly shortened to Port Columbus, is an international airport located 10 km east of downtown Columbus, Ohio, USA.

Climatology

Humid “subtropical” climate (Köppen climate classification Cfa) - characterized by hot, humid summers and cool winters. Significant amounts of precipitation occur in all seasons in most areas. Winter rainfall (and sometimes snowfall) is associated with large storms that the westerlies steer from west to east. Most summer rainfall occurs during thunderstorms.

Airport map

Aerial View

SKYbrary Partners:

Safety knowledge contributed by: